createdAt,value
2023-03-20T00:02:19.121Z,10.90
2023-03-20T00:04:45.734Z,10.90
2023-03-20T00:07:12.658Z,10.99
2023-03-20T00:09:39.495Z,10.91
2023-03-20T00:12:06.272Z,10.85
2023-03-20T00:14:34.491Z,10.87
2023-03-20T00:17:01.966Z,10.80
2023-03-20T00:19:30.946Z,10.79
2023-03-20T00:21:57.662Z,10.85
2023-03-20T00:24:24.762Z,10.86
2023-03-20T00:26:52.962Z,10.90
2023-03-20T00:29:27.576Z,10.91
2023-03-20T00:31:55.055Z,10.85
2023-03-20T00:34:24.218Z,10.83
2023-03-20T00:36:51.679Z,10.87
2023-03-20T00:39:18.185Z,10.88
2023-03-20T00:41:51.591Z,10.94
2023-03-20T00:44:34.147Z,10.90
2023-03-20T00:47:13.173Z,10.91
2023-03-20T00:49:40.262Z,10.90
2023-03-20T00:52:06.699Z,10.91
2023-03-20T00:54:33.092Z,10.91
2023-03-20T00:57:22.502Z,10.81
2023-03-20T01:00:14.531Z,10.81
2023-03-20T01:02:41.069Z,10.88
2023-03-20T01:05:08.180Z,10.89
2023-03-20T01:07:34.557Z,10.96
2023-03-20T01:10:01.157Z,10.99
2023-03-20T01:12:28.213Z,10.93
2023-03-20T01:14:58.627Z,10.92
2023-03-20T01:17:27.352Z,10.90
2023-03-20T01:19:53.960Z,10.94
2023-03-20T01:22:20.475Z,10.93
2023-03-20T01:24:47.337Z,10.90
2023-03-20T01:27:15.812Z,10.93
2023-03-20T01:29:42.216Z,10.90
2023-03-20T01:32:12.548Z,10.89
2023-03-20T01:34:39.087Z,10.95
2023-03-20T01:37:12.710Z,10.94
2023-03-20T01:39:39.085Z,10.90
2023-03-20T01:42:07.037Z,10.88
2023-03-20T01:44:35.774Z,10.97
2023-03-20T01:47:04.510Z,10.90
2023-03-20T01:50:01.762Z,10.89
2023-03-20T01:52:28.344Z,10.89
2023-03-20T01:54:54.889Z,10.88
2023-03-20T01:57:24.915Z,10.96
2023-03-20T02:00:03.181Z,10.92
2023-03-20T02:02:32.127Z,10.85
2023-03-20T02:05:03.937Z,10.84
2023-03-20T02:07:33.065Z,10.85
2023-03-20T02:09:59.691Z,10.89
2023-03-20T02:12:26.394Z,10.87
2023-03-20T02:14:53.163Z,10.82
2023-03-20T02:17:21.290Z,10.76
2023-03-20T02:20:09.337Z,10.78
2023-03-20T02:23:00.730Z,10.87
2023-03-20T02:25:45.780Z,10.89
2023-03-20T02:28:34.181Z,10.85
2023-03-20T02:31:17.708Z,10.82
2023-03-20T02:34:12.253Z,10.82
2023-03-20T02:37:16.612Z,10.87
2023-03-20T02:40:05.950Z,10.85
2023-03-20T02:42:47.495Z,10.80
2023-03-20T02:45:18.975Z,10.76
2023-03-20T02:47:57.334Z,10.77
2023-03-20T02:50:42.965Z,10.82
2023-03-20T02:53:12.807Z,10.78
2023-03-20T02:55:49.372Z,10.74
2023-03-20T02:58:22.546Z,10.77
2023-03-20T03:01:04.221Z,10.75
2023-03-20T03:03:38.339Z,10.66
2023-03-20T03:06:17.722Z,10.72
2023-03-20T03:08:49.673Z,10.71
2023-03-20T03:11:17.536Z,10.65
2023-03-20T03:13:48.829Z,10.66
2023-03-20T03:16:26.624Z,10.68
2023-03-20T03:19:06.706Z,10.71
2023-03-20T03:21:35.059Z,10.68
2023-03-20T03:24:02.619Z,10.64
2023-03-20T03:26:35.307Z,10.62
2023-03-20T03:29:12.569Z,10.57
2023-03-20T03:31:39.639Z,10.60
2023-03-20T03:34:06.453Z,10.60
2023-03-20T03:36:54.503Z,10.60
2023-03-20T03:39:36.923Z,10.54
2023-03-20T03:42:28.010Z,10.51
2023-03-20T03:45:17.311Z,10.52
2023-03-20T03:47:50.300Z,10.62
2023-03-20T03:50:21.899Z,10.57
2023-03-20T03:52:50.398Z,10.59
2023-03-20T03:55:23.895Z,10.64
2023-03-20T03:57:56.474Z,10.49
2023-03-20T04:00:25.987Z,10.44
2023-03-20T04:02:56.139Z,10.41
2023-03-20T04:05:27.663Z,10.38
2023-03-20T04:07:56.400Z,10.36
2023-03-20T04:10:22.729Z,10.33
2023-03-20T04:12:49.104Z,10.35
2023-03-20T04:15:16.518Z,10.37
2023-03-20T04:17:44.458Z,10.42
2023-03-20T04:20:12.276Z,10.42
2023-03-20T04:22:38.804Z,10.37
2023-03-20T04:25:07.098Z,10.42
2023-03-20T04:27:33.516Z,10.38
2023-03-20T04:29:59.900Z,10.35
2023-03-20T04:32:26.341Z,10.17
2023-03-20T04:34:53.434Z,10.16
2023-03-20T04:37:19.891Z,10.04
2023-03-20T04:39:46.397Z,10.05
2023-03-20T04:42:12.791Z,10.05
2023-03-20T04:44:39.130Z,10.13
2023-03-20T04:47:05.570Z,10.07
2023-03-20T04:49:31.942Z,10.12
2023-03-20T04:51:58.317Z,10.19
2023-03-20T04:54:25.208Z,10.23
2023-03-20T04:56:51.674Z,10.25
2023-03-20T04:59:18.270Z,10.26
2023-03-20T05:01:44.640Z,10.25
2023-03-20T05:04:11.156Z,10.21
2023-03-20T05:06:37.556Z,10.18
2023-03-20T05:09:04.165Z,10.05
2023-03-20T05:11:30.600Z,10.04
2023-03-20T05:13:57.222Z,10.09
2023-03-20T05:16:23.873Z,10.07
2023-03-20T05:18:50.452Z,10.07
2023-03-20T05:21:16.881Z,10.00
2023-03-20T05:23:43.355Z,9.98
2023-03-20T05:26:09.674Z,10.02
2023-03-20T05:28:37.345Z,9.99
2023-03-20T05:31:04.115Z,9.91
2023-03-20T05:33:31.686Z,9.88
2023-03-20T05:35:58.159Z,9.84
2023-03-20T05:38:25.742Z,9.81
2023-03-20T05:40:59.194Z,9.81
2023-03-20T05:43:25.985Z,9.79
2023-03-20T05:45:53.327Z,9.81
2023-03-20T05:48:19.730Z,9.79
2023-03-20T05:50:46.282Z,9.78
2023-03-20T05:53:12.738Z,9.71
2023-03-20T05:55:39.114Z,9.65
2023-03-20T05:58:06.201Z,9.67
2023-03-20T06:00:32.623Z,9.64
2023-03-20T06:02:59.260Z,9.63
2023-03-20T06:05:26.069Z,9.65
2023-03-20T06:07:52.462Z,9.72
2023-03-20T06:10:20.728Z,9.64
2023-03-20T06:12:47.142Z,9.69
2023-03-20T06:15:13.530Z,9.70
2023-03-20T06:17:39.990Z,9.72
2023-03-20T06:20:07.303Z,9.69
2023-03-20T06:22:33.821Z,9.73
2023-03-20T06:25:01.300Z,9.72
2023-03-20T06:27:27.712Z,9.78
2023-03-20T06:29:54.089Z,9.79
2023-03-20T06:32:20.828Z,9.83
2023-03-20T06:34:47.725Z,9.88
2023-03-20T06:37:14.070Z,9.81
2023-03-20T06:39:41.662Z,9.91
2023-03-20T06:42:08.471Z,9.94
2023-03-20T06:44:34.772Z,10.05
2023-03-20T06:47:01.152Z,10.06
2023-03-20T06:49:28.084Z,10.05
2023-03-20T06:51:54.534Z,10.09
2023-03-20T06:54:21.027Z,10.17
2023-03-20T06:56:47.445Z,10.12
2023-03-20T06:59:13.945Z,10.19
2023-03-20T07:01:40.459Z,10.11
2023-03-20T07:04:07.541Z,10.12
2023-03-20T07:06:34.072Z,10.13
2023-03-20T07:09:01.384Z,10.21
2023-03-20T07:11:28.492Z,10.20
2023-03-20T07:13:54.887Z,10.24
2023-03-20T07:16:21.648Z,10.27
2023-03-20T07:18:48.074Z,10.35
2023-03-20T07:21:20.286Z,10.34
2023-03-20T07:23:46.949Z,10.26
2023-03-20T07:26:13.739Z,10.32
2023-03-20T07:28:40.202Z,10.35
2023-03-20T07:31:06.732Z,10.45
2023-03-20T07:33:33.170Z,10.40
2023-03-20T07:35:59.677Z,10.47
2023-03-20T07:38:26.108Z,10.61
2023-03-20T07:40:54.598Z,10.63
2023-03-20T07:43:21.195Z,10.65
2023-03-20T07:45:47.666Z,10.62
2023-03-20T07:48:14.032Z,10.63
2023-03-20T07:50:40.484Z,10.60
2023-03-20T07:53:07.852Z,10.55
2023-03-20T07:55:34.467Z,10.56
2023-03-20T07:58:01.076Z,10.61
2023-03-20T08:00:28.348Z,10.52
2023-03-20T08:02:56.931Z,10.55
2023-03-20T08:05:26.819Z,10.64
2023-03-20T08:07:53.472Z,10.68
2023-03-20T08:10:19.922Z,10.61
2023-03-20T08:12:46.504Z,10.67
2023-03-20T08:15:13.039Z,10.64
2023-03-20T08:17:43.762Z,10.66
2023-03-20T08:20:11.100Z,10.75
2023-03-20T08:22:37.455Z,10.78
2023-03-20T08:25:04.123Z,10.80
2023-03-20T08:27:31.054Z,10.86
2023-03-20T08:29:57.411Z,10.84
2023-03-20T08:32:23.815Z,10.75
2023-03-20T08:34:50.242Z,10.85
2023-03-20T08:37:16.845Z,10.88
2023-03-20T08:39:43.307Z,10.88
2023-03-20T08:42:09.706Z,10.96
2023-03-20T08:44:36.216Z,11.01
2023-03-20T08:47:03.459Z,11.03
2023-03-20T08:49:29.900Z,11.02
2023-03-20T08:51:56.294Z,11.04
2023-03-20T08:54:22.868Z,11.00
2023-03-20T08:56:49.276Z,10.93
2023-03-20T08:59:15.610Z,10.95
2023-03-20T09:01:49.308Z,10.96
2023-03-20T09:04:16.985Z,11.00
2023-03-20T09:06:43.312Z,10.88
2023-03-20T09:09:09.848Z,10.91
2023-03-20T09:11:36.608Z,10.97
2023-03-20T09:14:02.966Z,10.99
2023-03-20T09:16:29.462Z,11.08
2023-03-20T09:18:56.223Z,11.05
2023-03-20T09:21:22.657Z,11.08
2023-03-20T09:23:49.025Z,11.07
2023-03-20T09:26:15.578Z,11.09
2023-03-20T09:28:42.119Z,11.10
2023-03-20T09:31:08.492Z,11.11
2023-03-20T09:33:35.013Z,11.13
2023-03-20T09:36:01.925Z,11.12
2023-03-20T09:38:28.688Z,11.19
2023-03-20T09:40:58.703Z,11.26
2023-03-20T09:43:56.386Z,11.27
2023-03-20T09:46:28.793Z,11.12
2023-03-20T09:49:07.701Z,11.10
2023-03-20T09:51:56.339Z,10.97
2023-03-20T09:54:53.645Z,10.91
2023-03-20T09:57:32.319Z,10.94
2023-03-20T10:00:03.389Z,11.06
2023-03-20T10:02:50.793Z,11.12
2023-03-20T10:05:23.277Z,11.13
2023-03-20T10:07:49.767Z,11.19
2023-03-20T10:10:20.217Z,11.26
2023-03-20T10:13:09.455Z,11.38
2023-03-20T10:16:03.274Z,11.41
2023-03-20T10:18:33.944Z,11.50
2023-03-20T10:21:15.359Z,11.57
2023-03-20T10:23:54.437Z,11.50
2023-03-20T10:26:23.661Z,11.43
2023-03-20T10:29:15.382Z,11.31
2023-03-20T10:32:03.142Z,11.23
2023-03-20T10:34:40.450Z,11.23
2023-03-20T10:37:31.638Z,11.30
2023-03-20T10:40:39.348Z,11.28
2023-03-20T10:43:17.136Z,11.34
2023-03-20T10:45:48.426Z,11.34
2023-03-20T10:48:31.129Z,11.36
2023-03-20T10:51:02.003Z,11.35
2023-03-20T10:53:49.396Z,11.40
2023-03-20T10:56:40.610Z,11.31
2023-03-20T10:59:12.363Z,11.22
2023-03-20T11:01:38.668Z,11.21
2023-03-20T11:04:06.178Z,11.24
2023-03-20T11:06:41.597Z,11.31
2023-03-20T11:09:17.697Z,11.37
2023-03-20T11:11:46.187Z,11.30
2023-03-20T11:14:18.934Z,11.37
2023-03-20T11:16:56.553Z,11.40
2023-03-20T11:19:23.918Z,11.47
2023-03-20T11:21:55.989Z,11.56
2023-03-20T11:24:41.943Z,11.55
2023-03-20T11:27:15.990Z,11.44
2023-03-20T11:29:45.738Z,11.19
2023-03-20T11:32:26.952Z,11.19
2023-03-20T11:34:57.434Z,11.23
2023-03-20T11:37:28.946Z,11.32
2023-03-20T11:40:08.946Z,11.39
2023-03-20T11:42:37.069Z,11.36
2023-03-20T11:45:07.013Z,11.43
2023-03-20T11:47:36.068Z,11.56
2023-03-20T11:50:06.359Z,11.47
2023-03-20T11:52:38.820Z,11.49
2023-03-20T11:55:23.301Z,11.53
2023-03-20T11:57:49.706Z,11.55
2023-03-20T12:00:36.067Z,11.50
2023-03-20T12:03:03.689Z,11.48
2023-03-20T12:05:41.936Z,11.37
2023-03-20T12:08:27.773Z,11.37
2023-03-20T12:10:59.720Z,11.32
2023-03-20T12:13:33.207Z,11.41
2023-03-20T12:16:04.705Z,11.45
2023-03-20T12:18:36.091Z,11.42
2023-03-20T12:21:28.826Z,11.48
2023-03-20T12:24:04.501Z,11.54
2023-03-20T12:26:34.730Z,11.54
2023-03-20T12:29:07.954Z,11.57
2023-03-20T12:31:50.117Z,11.68
2023-03-20T12:34:41.451Z,11.61
2023-03-20T12:37:12.089Z,11.73
2023-03-20T12:39:46.023Z,11.62
2023-03-20T12:42:21.468Z,11.69
2023-03-20T12:44:58.784Z,11.60
2023-03-20T12:47:52.333Z,11.54
2023-03-20T12:50:36.888Z,11.47
2023-03-20T12:53:17.413Z,11.46
2023-03-20T12:56:02.239Z,11.53
2023-03-20T12:58:51.925Z,11.57
2023-03-20T13:01:45.634Z,11.67
2023-03-20T13:04:43.213Z,11.73
2023-03-20T13:07:21.700Z,11.76
2023-03-20T13:10:21.461Z,11.81
2023-03-20T13:13:06.377Z,11.85
2023-03-20T13:15:42.142Z,11.86
2023-03-20T13:18:11.665Z,11.87
2023-03-20T13:20:51.481Z,11.82
2023-03-20T13:23:36.165Z,11.87
2023-03-20T13:26:50.948Z,11.96
2023-03-20T13:29:39.007Z,12.05
2023-03-20T13:32:36.254Z,11.95
2023-03-20T13:35:42.204Z,12.02
2023-03-20T13:38:21.622Z,12.01
2023-03-20T13:40:56.278Z,11.93
2023-03-20T13:43:31.920Z,11.85
2023-03-20T13:46:07.137Z,11.87
2023-03-20T13:48:37.847Z,11.83
2023-03-20T13:51:19.536Z,11.81
2023-03-20T13:54:18.386Z,11.82
2023-03-20T13:56:44.710Z,11.64
2023-03-20T13:59:36.166Z,11.61
2023-03-20T14:02:26.950Z,11.47
2023-03-20T14:05:04.104Z,11.65
2023-03-20T14:07:36.839Z,11.55
2023-03-20T14:10:21.501Z,11.62
2023-03-20T14:12:50.227Z,11.56
2023-03-20T14:15:19.549Z,11.65
2023-03-20T14:17:48.760Z,11.62
2023-03-20T14:20:36.970Z,11.55
2023-03-20T14:23:04.877Z,11.61
2023-03-20T14:25:41.939Z,11.76
2023-03-20T14:28:11.609Z,11.93
2023-03-20T14:30:39.930Z,12.04
2023-03-20T14:33:07.716Z,12.08
2023-03-20T14:35:39.540Z,12.08
2023-03-20T14:38:31.018Z,12.05
2023-03-20T14:41:11.677Z,12.02
2023-03-20T14:44:00.024Z,12.04
2023-03-20T14:46:26.337Z,12.13
2023-03-20T14:48:54.636Z,12.01
2023-03-20T14:51:39.387Z,11.99
2023-03-20T14:54:20.999Z,12.04
2023-03-20T14:56:52.030Z,12.12
2023-03-20T14:59:22.633Z,12.09
2023-03-20T15:02:26.267Z,12.03
2023-03-20T15:04:53.095Z,11.92
2023-03-20T15:07:25.308Z,11.96
2023-03-20T15:09:56.657Z,11.94
2023-03-20T15:12:28.884Z,11.91
2023-03-20T15:15:03.955Z,11.99
2023-03-20T15:17:47.498Z,12.03
2023-03-20T15:20:24.772Z,12.10
2023-03-20T15:22:58.000Z,12.07
2023-03-20T15:25:45.172Z,12.11
2023-03-20T15:28:22.613Z,12.18
2023-03-20T15:30:51.397Z,12.20
2023-03-20T15:33:26.419Z,12.24
2023-03-20T15:35:53.242Z,12.28
2023-03-20T15:38:20.821Z,12.29
2023-03-20T15:40:51.391Z,12.28
2023-03-20T15:43:24.290Z,12.26
2023-03-20T15:46:02.859Z,12.27
2023-03-20T15:48:36.642Z,12.34
2023-03-20T15:51:04.980Z,12.23
2023-03-20T15:53:35.724Z,12.16
2023-03-20T15:56:17.190Z,12.12
2023-03-20T15:58:46.211Z,12.16
2023-03-20T16:01:18.557Z,12.20
2023-03-20T16:03:45.122Z,12.24
2023-03-20T16:06:16.324Z,12.25
2023-03-20T16:08:42.743Z,12.24
2023-03-20T16:11:15.424Z,12.26
2023-03-20T16:13:46.434Z,12.27
2023-03-20T16:16:18.944Z,12.26
2023-03-20T16:18:48.017Z,12.20
2023-03-20T16:21:26.145Z,12.25
2023-03-20T16:23:55.833Z,12.17
2023-03-20T16:26:24.378Z,12.17
2023-03-20T16:28:56.469Z,12.18
2023-03-20T16:31:28.683Z,12.18
2023-03-20T16:33:59.856Z,12.17
2023-03-20T16:36:30.545Z,12.20
2023-03-20T16:39:17.127Z,12.20
2023-03-20T16:41:45.532Z,12.26
2023-03-20T16:44:23.285Z,12.32
2023-03-20T16:47:01.074Z,12.29
2023-03-20T16:49:29.599Z,12.22
2023-03-20T16:51:59.659Z,12.22
2023-03-20T16:54:30.644Z,12.36
2023-03-20T16:56:57.672Z,12.39
2023-03-20T16:59:25.583Z,12.44
2023-03-20T17:01:54.104Z,12.41
2023-03-20T17:04:42.490Z,12.40
2023-03-20T17:07:18.342Z,12.39
2023-03-20T17:09:53.630Z,12.37
2023-03-20T17:12:20.055Z,12.31
2023-03-20T17:14:46.536Z,12.32
2023-03-20T17:17:19.544Z,12.40
2023-03-20T17:19:46.944Z,12.40
2023-03-20T17:22:15.834Z,12.41
2023-03-20T17:24:42.472Z,12.40
2023-03-20T17:27:12.015Z,12.38
2023-03-20T17:29:39.451Z,12.40
2023-03-20T17:32:14.276Z,12.40
2023-03-20T17:34:41.088Z,12.38
2023-03-20T17:37:13.447Z,12.36
2023-03-20T17:39:40.457Z,12.34
2023-03-20T17:42:24.463Z,12.33
2023-03-20T17:44:50.863Z,12.36
2023-03-20T17:47:20.937Z,12.38
2023-03-20T17:49:47.760Z,12.30
2023-03-20T17:52:19.801Z,12.32
2023-03-20T17:54:46.955Z,12.32
2023-03-20T17:57:22.456Z,12.33
2023-03-20T17:59:49.999Z,12.33
2023-03-20T18:02:18.192Z,12.21
2023-03-20T18:04:45.777Z,12.26
2023-03-20T18:07:12.677Z,12.29
2023-03-20T18:09:43.563Z,12.26
2023-03-20T18:12:14.343Z,12.30
2023-03-20T18:14:42.172Z,12.22
2023-03-20T18:17:10.335Z,12.23
2023-03-20T18:19:36.713Z,12.22
2023-03-20T18:22:04.176Z,12.16
2023-03-20T18:24:30.882Z,12.18
2023-03-20T18:26:57.382Z,12.12
2023-03-20T18:29:23.728Z,12.13
2023-03-20T18:31:50.392Z,12.12
2023-03-20T18:34:17.148Z,12.12
2023-03-20T18:36:45.573Z,12.13
2023-03-20T18:39:19.831Z,12.13
2023-03-20T18:41:46.436Z,12.20
2023-03-20T18:44:13.326Z,12.23
2023-03-20T18:46:40.394Z,12.26
2023-03-20T18:49:07.066Z,12.23
2023-03-20T18:51:33.562Z,12.22
2023-03-20T18:54:00.155Z,12.21
2023-03-20T18:56:28.242Z,12.23
2023-03-20T18:58:54.706Z,12.14
2023-03-20T19:01:21.449Z,12.13
2023-03-20T19:03:48.152Z,12.15
2023-03-20T19:06:20.514Z,12.17
2023-03-20T19:08:48.760Z,12.19
2023-03-20T19:11:17.889Z,12.17
2023-03-20T19:13:49.468Z,12.18
2023-03-20T19:16:37.862Z,12.23
2023-03-20T19:19:06.242Z,12.22
2023-03-20T19:21:34.392Z,12.21
2023-03-20T19:24:04.588Z,12.19
2023-03-20T19:26:32.524Z,12.15
2023-03-20T19:29:01.178Z,12.14
2023-03-20T19:31:28.489Z,12.16
2023-03-20T19:33:56.570Z,12.20
2023-03-20T19:36:27.274Z,12.19
2023-03-20T19:38:54.673Z,12.16
2023-03-20T19:41:21.291Z,12.21
2023-03-20T19:43:52.865Z,12.16
2023-03-20T19:46:38.258Z,12.09
2023-03-20T19:49:06.436Z,12.08
2023-03-20T19:51:33.149Z,12.07
2023-03-20T19:53:59.606Z,12.09
2023-03-20T19:56:27.037Z,12.12
2023-03-20T19:58:53.504Z,12.10
2023-03-20T20:01:23.420Z,12.10
2023-03-20T20:03:53.368Z,12.10
2023-03-20T20:06:22.186Z,11.98
2023-03-20T20:08:50.436Z,11.93
2023-03-20T20:11:18.476Z,11.98
2023-03-20T20:14:04.718Z,12.01
2023-03-20T20:16:32.728Z,12.04
2023-03-20T20:18:59.172Z,12.04
2023-03-20T20:22:16.855Z,11.95
2023-03-20T20:24:12.374Z,11.97
2023-03-20T20:26:45.254Z,11.94
2023-03-20T20:29:15.821Z,11.85
2023-03-20T20:31:43.983Z,11.89
2023-03-20T20:39:47.615Z,11.89
2023-03-20T20:42:14.544Z,11.80
2023-03-20T20:44:40.957Z,11.77
2023-03-20T20:47:08.162Z,11.60
2023-03-20T20:49:35.007Z,11.57
2023-03-20T20:52:01.478Z,11.45
2023-03-20T20:54:28.841Z,11.52
2023-03-20T20:56:56.184Z,11.48
2023-03-20T20:59:23.182Z,11.48
2023-03-20T21:01:50.577Z,11.47
2023-03-20T21:04:17.146Z,11.50
2023-03-20T21:07:08.168Z,11.46
2023-03-20T21:09:30.202Z,11.44
2023-03-20T21:11:56.677Z,11.49
2023-03-20T21:14:23.248Z,11.50
2023-03-20T21:16:50.273Z,11.49
2023-03-20T21:19:16.717Z,11.47
2023-03-20T21:21:43.121Z,11.45
2023-03-20T21:24:30.547Z,11.42
2023-03-20T21:27:03.064Z,11.45
2023-03-20T21:29:29.508Z,11.52
2023-03-20T21:31:56.096Z,11.46
2023-03-20T21:34:22.757Z,11.44
2023-03-20T21:36:51.368Z,11.50
2023-03-20T21:39:18.628Z,11.52
2023-03-20T21:41:45.986Z,11.42
2023-03-20T21:44:17.726Z,11.49
2023-03-20T22:04:00.531Z,11.45
2023-03-20T22:31:55.237Z,11.40
2023-03-20T22:34:46.121Z,11.39
2023-03-20T22:45:10.633Z,11.45
2023-03-20T22:47:37.611Z,11.48
2023-03-20T22:50:05.281Z,11.52
2023-03-20T22:52:47.744Z,11.42
2023-03-20T22:55:16.510Z,11.32
2023-03-20T22:57:52.847Z,11.29
2023-03-20T23:00:27.025Z,11.29
2023-03-20T23:02:57.430Z,11.35
2023-03-20T23:05:26.984Z,11.34
2023-03-20T23:07:53.319Z,11.28
2023-03-20T23:10:19.678Z,11.37
2023-03-20T23:12:46.064Z,11.35
2023-03-20T23:15:12.648Z,11.35
2023-03-20T23:17:39.012Z,11.37
2023-03-20T23:20:12.320Z,11.36
2023-03-20T23:22:40.542Z,11.31
2023-03-20T23:25:23.941Z,11.34
2023-03-20T23:27:54.591Z,11.32
2023-03-20T23:30:23.380Z,11.40
2023-03-20T23:32:51.578Z,11.36
2023-03-20T23:35:18.619Z,11.40
2023-03-20T23:37:44.979Z,11.42
2023-03-20T23:40:12.030Z,11.43
2023-03-20T23:42:38.454Z,11.44
2023-03-20T23:45:19.269Z,11.39
2023-03-20T23:47:48.025Z,11.28
2023-03-20T23:50:26.397Z,11.36
2023-03-20T23:53:03.439Z,11.39
2023-03-20T23:55:35.562Z,11.34
2023-03-20T23:58:02.394Z,11.34
